createdAt,value
2023-04-16T00:00:35.342Z,1013.01
2023-04-16T00:01:35.333Z,1013.00
2023-04-16T00:02:35.501Z,1013.02
2023-04-16T00:03:35.788Z,1013.02
2023-04-16T00:04:35.386Z,1012.98
2023-04-16T00:05:35.290Z,1013.05
2023-04-16T00:06:35.280Z,1012.99
2023-04-16T00:07:35.281Z,1012.97
2023-04-16T00:08:35.248Z,1012.95
2023-04-16T00:09:35.286Z,1012.99
2023-04-16T00:10:35.239Z,1012.96
2023-04-16T00:11:35.270Z,1012.95
2023-04-16T00:12:35.216Z,1012.99
2023-04-16T00:13:35.205Z,1012.95
2023-04-16T00:14:35.191Z,1013.01
2023-04-16T00:15:35.191Z,1012.95
2023-04-16T00:16:35.216Z,1012.98
2023-04-16T00:17:35.258Z,1013.02
2023-04-16T00:18:35.155Z,1013.02
2023-04-16T00:19:35.178Z,1013.04
2023-04-16T00:20:35.121Z,1013.00
2023-04-16T00:21:35.124Z,1013.00
2023-04-16T00:22:35.105Z,1013.01
2023-04-16T00:23:35.102Z,1013.05
2023-04-16T00:24:35.100Z,1012.98
2023-04-16T00:25:35.107Z,1013.08
2023-04-16T00:26:35.062Z,1013.05
2023-04-16T00:27:35.110Z,1013.08
2023-04-16T00:28:35.049Z,1013.03
2023-04-16T00:29:35.064Z,1013.10
2023-04-16T00:30:35.031Z,1013.11
2023-04-16T00:31:35.024Z,1013.10
2023-04-16T00:32:35.038Z,1013.08
2023-04-16T00:33:35.041Z,1013.09
2023-04-16T00:34:35.028Z,1013.15
2023-04-16T00:35:35.035Z,1013.11
2023-04-16T00:36:35.003Z,1013.13
2023-04-16T00:37:34.951Z,1013.13
2023-04-16T00:38:34.928Z,1013.13
2023-04-16T00:39:35.013Z,1013.13
2023-04-16T00:40:34.905Z,1013.12
2023-04-16T00:41:34.904Z,1013.12
2023-04-16T00:42:35.021Z,1013.13
2023-04-16T00:43:35.309Z,1013.11
2023-04-16T00:44:34.855Z,1013.16
2023-04-16T00:45:34.856Z,1013.16
2023-04-16T00:46:34.932Z,1013.14
2023-04-16T00:47:34.866Z,1013.19
2023-04-16T00:48:34.824Z,1013.12
2023-04-16T00:49:35.033Z,1013.17
2023-04-16T00:50:34.790Z,1013.15
2023-04-16T00:51:34.786Z,1013.11
2023-04-16T00:52:34.834Z,1013.11
2023-04-16T00:53:34.769Z,1013.16
2023-04-16T00:54:34.755Z,1013.11
2023-04-16T00:55:34.740Z,1013.16
2023-04-16T00:56:34.718Z,1013.15
2023-04-16T00:57:34.715Z,1013.12
2023-04-16T00:58:34.747Z,1013.18
2023-04-16T00:59:34.709Z,1013.16
2023-04-16T01:00:34.680Z,1013.15
2023-04-16T01:01:34.750Z,1013.14
2023-04-16T01:02:34.877Z,1013.18
2023-04-16T01:03:34.867Z,1013.17
2023-04-16T01:04:34.663Z,1013.15
2023-04-16T01:05:34.631Z,1013.19
2023-04-16T01:06:34.621Z,1013.14
2023-04-16T01:07:34.612Z,1013.13
2023-04-16T01:08:34.672Z,1013.15
2023-04-16T01:09:34.593Z,1013.20
2023-04-16T01:10:34.575Z,1013.11
2023-04-16T01:11:34.571Z,1013.18
2023-04-16T01:12:34.559Z,1013.14
2023-04-16T01:13:34.610Z,1013.14
2023-04-16T01:14:34.540Z,1013.25
2023-04-16T01:15:34.552Z,1013.24
2023-04-16T01:16:34.520Z,1013.16
2023-04-16T01:17:34.542Z,1013.15
2023-04-16T01:18:34.501Z,1013.19
2023-04-16T01:19:34.522Z,1013.18
2023-04-16T01:20:34.468Z,1013.22
2023-04-16T01:21:34.466Z,1013.17
2023-04-16T01:22:34.479Z,1013.16
2023-04-16T01:23:34.442Z,1013.18
2023-04-16T01:24:34.435Z,1013.20
2023-04-16T01:25:34.423Z,1013.16
2023-04-16T01:26:34.399Z,1013.20
2023-04-16T01:27:34.413Z,1013.20
2023-04-16T01:28:34.415Z,1013.22
2023-04-16T01:29:34.380Z,1013.24
2023-04-16T01:30:34.378Z,1013.28
2023-04-16T01:31:34.406Z,1013.34
2023-04-16T01:32:34.368Z,1013.36
2023-04-16T01:33:34.345Z,1013.34
2023-04-16T01:34:34.355Z,1013.35
2023-04-16T01:35:34.319Z,1013.38
2023-04-16T01:36:34.320Z,1013.38
2023-04-16T01:37:34.295Z,1013.33
2023-04-16T01:38:34.322Z,1013.36
2023-04-16T01:39:34.278Z,1013.35
2023-04-16T01:40:34.277Z,1013.37
2023-04-16T01:41:34.300Z,1013.38
2023-04-16T01:42:34.243Z,1013.37
2023-04-16T01:43:34.915Z,1013.40
2023-04-16T01:44:34.225Z,1013.44
2023-04-16T01:45:34.234Z,1013.38
2023-04-16T01:46:34.260Z,1013.42
2023-04-16T01:47:34.298Z,1013.42
2023-04-16T01:48:34.208Z,1013.42
2023-04-16T01:49:34.167Z,1013.41
2023-04-16T01:50:34.191Z,1013.41
2023-04-16T01:51:34.146Z,1013.41
2023-04-16T01:52:34.139Z,1013.39
2023-04-16T01:53:35.803Z,1013.43
2023-04-16T01:54:34.114Z,1013.43
2023-04-16T01:55:34.100Z,1013.40
2023-04-16T01:56:34.135Z,1013.42
2023-04-16T01:57:34.084Z,1013.42
2023-04-16T01:58:34.100Z,1013.44
2023-04-16T01:59:34.066Z,1013.41
2023-04-16T02:00:34.065Z,1013.40
2023-04-16T02:01:34.038Z,1013.48
2023-04-16T02:02:34.188Z,1013.44
2023-04-16T02:03:34.268Z,1013.40
2023-04-16T02:04:34.003Z,1013.40
2023-04-16T02:05:34.003Z,1013.40
2023-04-16T02:06:33.989Z,1013.40
2023-04-16T02:07:33.973Z,1013.43
2023-04-16T02:08:33.962Z,1013.34
2023-04-16T02:09:34.010Z,1013.36
2023-04-16T02:10:33.943Z,1013.38
2023-04-16T02:11:33.943Z,1013.36
2023-04-16T02:12:33.913Z,1013.32
2023-04-16T02:13:33.913Z,1013.32
2023-04-16T02:14:34.005Z,1013.37
2023-04-16T02:15:33.924Z,1013.34
2023-04-16T02:16:33.914Z,1013.36
2023-04-16T02:17:33.911Z,1013.33
2023-04-16T02:18:33.850Z,1013.35
2023-04-16T02:19:33.838Z,1013.36
2023-04-16T02:20:33.826Z,1013.37
2023-04-16T02:21:33.845Z,1013.39
2023-04-16T02:22:33.856Z,1013.35
2023-04-16T02:23:33.797Z,1013.37
2023-04-16T02:24:33.786Z,1013.36
2023-04-16T02:25:33.796Z,1013.38
2023-04-16T02:26:33.756Z,1013.35
2023-04-16T02:27:33.749Z,1013.35
2023-04-16T02:28:33.741Z,1013.38
2023-04-16T02:29:33.732Z,1013.34
2023-04-16T02:30:33.713Z,1013.36
2023-04-16T02:31:33.754Z,1013.40
2023-04-16T02:32:33.727Z,1013.36
2023-04-16T02:33:33.690Z,1013.37
2023-04-16T02:34:33.681Z,1013.37
2023-04-16T02:35:33.656Z,1013.42
2023-04-16T02:36:33.688Z,1013.41
2023-04-16T02:37:33.644Z,1013.46
2023-04-16T02:38:33.637Z,1013.41
2023-04-16T02:39:33.656Z,1013.47
2023-04-16T02:40:33.610Z,1013.42
2023-04-16T02:41:33.601Z,1013.44
2023-04-16T02:42:33.587Z,1013.43
2023-04-16T02:43:33.571Z,1013.44
2023-04-16T02:44:33.582Z,1013.43
2023-04-16T02:45:33.599Z,1013.43
2023-04-16T02:46:33.547Z,1013.48
2023-04-16T02:47:33.587Z,1013.47
2023-04-16T02:48:33.574Z,1013.47
2023-04-16T02:49:33.521Z,1013.45
2023-04-16T02:50:33.534Z,1013.44
2023-04-16T02:51:33.514Z,1013.48
2023-04-16T02:52:33.490Z,1013.44
2023-04-16T02:53:33.464Z,1013.43
2023-04-16T02:54:33.509Z,1013.46
2023-04-16T02:55:33.441Z,1013.40
2023-04-16T02:56:33.444Z,1013.40
2023-04-16T02:57:33.429Z,1013.43
2023-04-16T02:58:33.436Z,1013.39
2023-04-16T02:59:33.403Z,1013.37
2023-04-16T03:00:33.439Z,1013.41
2023-04-16T03:01:34.174Z,1013.43
2023-04-16T03:02:33.567Z,1013.39
2023-04-16T03:03:33.354Z,1013.44
2023-04-16T03:04:33.404Z,1013.40
2023-04-16T03:05:33.340Z,1013.45
2023-04-16T03:06:33.368Z,1013.39
2023-04-16T03:07:33.311Z,1013.41
2023-04-16T03:08:33.314Z,1013.42
2023-04-16T03:09:33.297Z,1013.42
2023-04-16T03:10:33.341Z,1013.41
2023-04-16T03:11:33.272Z,1013.44
2023-04-16T03:12:33.319Z,1013.44
2023-04-16T03:13:33.251Z,1013.43
2023-04-16T03:14:33.244Z,1013.43
2023-04-16T03:15:33.261Z,1013.43
2023-04-16T03:16:40.242Z,1013.47
2023-04-16T03:17:33.262Z,1013.49
2023-04-16T03:18:33.484Z,1013.49
2023-04-16T03:19:33.206Z,1013.48
2023-04-16T03:20:33.172Z,1013.53
2023-04-16T03:21:33.162Z,1013.47
2023-04-16T03:22:33.210Z,1013.53
2023-04-16T03:23:33.180Z,1013.51
2023-04-16T03:24:33.173Z,1013.53
2023-04-16T03:25:33.116Z,1013.49
2023-04-16T03:26:33.105Z,1013.50
2023-04-16T03:27:33.095Z,1013.53
2023-04-16T03:28:33.126Z,1013.54
2023-04-16T03:29:33.134Z,1013.53
2023-04-16T03:30:33.065Z,1013.49
2023-04-16T03:31:33.086Z,1013.50
2023-04-16T03:32:33.094Z,1013.50
2023-04-16T03:33:33.026Z,1013.53
2023-04-16T03:34:33.027Z,1013.51
2023-04-16T03:35:33.011Z,1013.52
2023-04-16T03:36:33.012Z,1013.55
2023-04-16T03:37:33.012Z,1013.58
2023-04-16T03:38:32.978Z,1013.56
2023-04-16T03:39:32.997Z,1013.55
2023-04-16T03:40:32.968Z,1013.57
2023-04-16T03:41:32.988Z,1013.60
2023-04-16T03:42:32.968Z,1013.56
2023-04-16T03:43:32.956Z,1013.54
2023-04-16T03:44:32.912Z,1013.51
2023-04-16T03:45:32.910Z,1013.53
2023-04-16T03:46:33.014Z,1013.50
2023-04-16T03:47:32.975Z,1013.48
2023-04-16T03:48:32.913Z,1013.53
2023-04-16T03:49:32.860Z,1013.48
2023-04-16T03:50:32.864Z,1013.55
2023-04-16T03:51:32.843Z,1013.53
2023-04-16T03:52:32.861Z,1013.57
2023-04-16T03:53:32.844Z,1013.62
2023-04-16T03:54:32.830Z,1013.58
2023-04-16T03:55:32.792Z,1013.66
2023-04-16T03:56:32.793Z,1013.60
2023-04-16T03:57:32.767Z,1013.62
2023-04-16T03:58:32.804Z,1013.60
2023-04-16T03:59:32.759Z,1013.60
2023-04-16T04:00:32.792Z,1013.58
2023-04-16T04:01:32.741Z,1013.62
2023-04-16T04:02:32.880Z,1013.54
2023-04-16T04:03:32.914Z,1013.61
2023-04-16T04:04:32.799Z,1013.67
2023-04-16T04:05:32.746Z,1013.63
2023-04-16T04:06:32.688Z,1013.65
2023-04-16T04:07:32.692Z,1013.65
2023-04-16T04:08:32.721Z,1013.60
2023-04-16T04:09:32.649Z,1013.58
2023-04-16T04:10:32.639Z,1013.66
2023-04-16T04:11:32.630Z,1013.60
2023-04-16T04:12:32.614Z,1013.61
2023-04-16T04:13:32.651Z,1013.60
2023-04-16T04:14:32.624Z,1013.61
2023-04-16T04:15:32.667Z,1013.62
2023-04-16T04:16:32.677Z,1013.66
2023-04-16T04:17:32.600Z,1013.69
2023-04-16T04:18:32.716Z,1013.71
2023-04-16T04:19:32.541Z,1013.70
2023-04-16T04:20:32.542Z,1013.69
2023-04-16T04:21:32.517Z,1013.72
2023-04-16T04:22:32.512Z,1013.72
2023-04-16T04:23:32.494Z,1013.70
2023-04-16T04:24:32.531Z,1013.66
2023-04-16T04:25:32.466Z,1013.71
2023-04-16T04:26:32.540Z,1013.69
2023-04-16T04:27:32.461Z,1013.71
2023-04-16T04:28:32.444Z,1013.73
2023-04-16T04:29:33.290Z,1013.73
2023-04-16T04:30:32.433Z,1013.76
2023-04-16T04:31:32.432Z,1013.76
2023-04-16T04:32:32.450Z,1013.78
2023-04-16T04:33:32.398Z,1013.80
2023-04-16T04:34:32.426Z,1013.75
2023-04-16T04:35:32.408Z,1013.78
2023-04-16T04:36:32.389Z,1013.81
2023-04-16T04:37:32.358Z,1013.77
2023-04-16T04:38:32.325Z,1013.80
2023-04-16T04:39:32.326Z,1013.77
2023-04-16T04:40:32.352Z,1013.84
2023-04-16T04:41:32.342Z,1013.79
2023-04-16T04:42:32.326Z,1013.80
2023-04-16T04:43:32.277Z,1013.78
2023-04-16T04:44:32.266Z,1013.77
2023-04-16T04:45:32.390Z,1013.82
2023-04-16T04:46:32.250Z,1013.74
2023-04-16T04:47:32.358Z,1013.78
2023-04-16T04:48:32.275Z,1013.73
2023-04-16T04:49:32.212Z,1013.77
2023-04-16T04:50:32.207Z,1013.84
2023-04-16T04:51:32.180Z,1013.85
2023-04-16T04:52:32.244Z,1013.80
2023-04-16T04:53:32.216Z,1013.84
2023-04-16T04:54:32.151Z,1013.84
2023-04-16T04:55:32.152Z,1013.88
2023-04-16T04:56:32.129Z,1013.92
2023-04-16T04:57:32.144Z,1013.98
2023-04-16T04:58:32.147Z,1013.92
2023-04-16T04:59:32.149Z,1013.92
2023-04-16T05:00:32.094Z,1013.94
2023-04-16T05:01:32.130Z,1013.98
2023-04-16T05:02:32.144Z,1013.99
2023-04-16T05:03:32.177Z,1014.03
2023-04-16T05:04:32.067Z,1014.01
2023-04-16T05:05:32.088Z,1013.96
2023-04-16T05:06:32.042Z,1013.97
2023-04-16T05:07:32.018Z,1014.01
2023-04-16T05:08:32.007Z,1014.04
2023-04-16T05:09:32.002Z,1014.04
2023-04-16T05:10:31.993Z,1014.05
2023-04-16T05:11:31.999Z,1014.07
2023-04-16T05:12:31.971Z,1014.07
2023-04-16T05:13:31.956Z,1014.09
2023-04-16T05:14:31.952Z,1014.07
2023-04-16T05:15:31.930Z,1014.16
2023-04-16T05:16:31.972Z,1014.11
2023-04-16T05:17:32.088Z,1014.14
2023-04-16T05:18:31.923Z,1014.13
2023-04-16T05:19:31.950Z,1014.09
2023-04-16T05:20:31.884Z,1014.09
2023-04-16T05:21:31.880Z,1014.17
2023-04-16T05:22:31.868Z,1014.17
2023-04-16T05:23:31.914Z,1014.15
2023-04-16T05:24:31.867Z,1014.15
2023-04-16T05:25:31.817Z,1014.17
2023-04-16T05:26:31.844Z,1014.21
2023-04-16T05:27:31.838Z,1014.20
2023-04-16T05:28:31.800Z,1014.20
2023-04-16T05:29:31.817Z,1014.19
2023-04-16T05:30:31.867Z,1014.19
2023-04-16T05:31:31.785Z,1014.23
2023-04-16T05:32:31.777Z,1014.23
2023-04-16T05:33:31.745Z,1014.22
2023-04-16T05:34:31.757Z,1014.26
2023-04-16T05:35:31.900Z,1014.31
2023-04-16T05:36:31.760Z,1014.32
2023-04-16T05:37:31.697Z,1014.32
2023-04-16T05:38:31.685Z,1014.32
2023-04-16T05:39:31.699Z,1014.31
2023-04-16T05:40:31.718Z,1014.33
2023-04-16T05:41:31.659Z,1014.38
2023-04-16T05:42:31.710Z,1014.42
2023-04-16T05:43:31.656Z,1014.45
2023-04-16T05:44:31.636Z,1014.42
2023-04-16T05:45:31.600Z,1014.41
2023-04-16T05:46:31.712Z,1014.45
2023-04-16T05:47:31.588Z,1014.41
2023-04-16T05:48:31.572Z,1014.47
2023-04-16T05:49:31.629Z,1014.51
2023-04-16T05:50:31.551Z,1014.49
2023-04-16T05:51:31.589Z,1014.51
2023-04-16T05:52:31.535Z,1014.52
2023-04-16T05:53:31.530Z,1014.49
2023-04-16T05:54:31.548Z,1014.52
2023-04-16T05:55:31.541Z,1014.58
2023-04-16T05:56:31.504Z,1014.57
2023-04-16T05:57:31.472Z,1014.59
2023-04-16T05:58:31.531Z,1014.58
2023-04-16T05:59:31.511Z,1014.59
2023-04-16T06:00:31.452Z,1014.60
2023-04-16T06:01:33.426Z,1014.61
2023-04-16T06:02:31.558Z,1014.60
2023-04-16T06:03:31.452Z,1014.65
2023-04-16T06:04:31.470Z,1014.59
2023-04-16T06:05:33.863Z,1014.66
2023-04-16T06:06:31.487Z,1014.66
2023-04-16T06:07:31.363Z,1014.66
2023-04-16T06:08:31.406Z,1014.65
2023-04-16T06:09:31.378Z,1014.68
2023-04-16T06:10:31.359Z,1014.69
2023-04-16T06:11:31.326Z,1014.66
2023-04-16T06:12:31.371Z,1014.69
2023-04-16T06:13:31.294Z,1014.69
2023-04-16T06:14:31.290Z,1014.67
2023-04-16T06:15:31.288Z,1014.69
2023-04-16T06:16:31.313Z,1014.71
2023-04-16T06:17:31.363Z,1014.70
2023-04-16T06:18:31.272Z,1014.68
2023-04-16T06:19:31.237Z,1014.70
2023-04-16T06:20:31.230Z,1014.67
2023-04-16T06:21:31.277Z,1014.70
2023-04-16T06:22:31.209Z,1014.71
2023-04-16T06:23:31.263Z,1014.72
2023-04-16T06:24:31.193Z,1014.72
2023-04-16T06:25:31.167Z,1014.77
2023-04-16T06:26:31.153Z,1014.75
2023-04-16T06:27:31.250Z,1014.76
2023-04-16T06:28:31.881Z,1014.71
2023-04-16T06:29:40.505Z,1014.70
2023-04-16T06:30:32.140Z,1014.75
2023-04-16T06:31:31.180Z,1014.76
2023-04-16T06:32:31.144Z,1014.76
2023-04-16T06:33:31.124Z,1014.79
2023-04-16T06:34:31.075Z,1014.73
2023-04-16T06:35:31.115Z,1014.77
2023-04-16T06:36:31.099Z,1014.79
2023-04-16T06:37:31.040Z,1014.79
2023-04-16T06:38:31.057Z,1014.81
2023-04-16T06:39:31.053Z,1014.85
2023-04-16T06:40:31.006Z,1014.83
2023-04-16T06:41:31.019Z,1014.86
2023-04-16T06:42:30.992Z,1014.87
2023-04-16T06:43:30.977Z,1014.87
2023-04-16T06:44:30.961Z,1014.86
2023-04-16T06:45:31.019Z,1014.87
2023-04-16T06:46:30.983Z,1014.82
2023-04-16T06:47:31.015Z,1014.91
2023-04-16T06:48:30.930Z,1014.92
2023-04-16T06:49:30.970Z,1014.94
2023-04-16T06:50:32.760Z,1014.92
2023-04-16T06:51:30.887Z,1014.93
2023-04-16T06:52:30.877Z,1014.95
2023-04-16T06:53:30.917Z,1014.92
2023-04-16T06:54:30.868Z,1014.93
2023-04-16T06:55:30.845Z,1014.89
2023-04-16T06:56:30.836Z,1014.95
2023-04-16T06:57:30.892Z,1014.93
2023-04-16T06:58:30.815Z,1014.91
2023-04-16T06:59:30.809Z,1014.93
2023-04-16T07:00:30.796Z,1014.96
2023-04-16T07:01:30.877Z,1014.94
2023-04-16T07:02:30.943Z,1014.96
2023-04-16T07:03:31.002Z,1014.98
2023-04-16T07:04:30.807Z,1014.97
2023-04-16T07:05:30.744Z,1015.00
2023-04-16T07:06:30.742Z,1015.03
2023-04-16T07:07:30.725Z,1014.98
2023-04-16T07:08:30.709Z,1015.01
2023-04-16T07:09:30.689Z,1015.01
2023-04-16T07:10:30.724Z,1014.98
2023-04-16T07:11:30.678Z,1014.99
2023-04-16T07:12:30.680Z,1014.98
2023-04-16T07:13:30.687Z,1015.01
2023-04-16T07:14:30.641Z,1015.01
2023-04-16T07:15:30.643Z,1015.00
2023-04-16T07:16:30.688Z,1015.04
2023-04-16T07:17:30.662Z,1015.05
2023-04-16T07:18:30.604Z,1015.06
2023-04-16T07:19:30.614Z,1015.06
2023-04-16T07:20:30.620Z,1015.10
2023-04-16T07:21:30.625Z,1015.08
2023-04-16T07:22:30.571Z,1015.05
2023-04-16T07:23:30.546Z,1015.13
2023-04-16T07:24:30.533Z,1015.11
2023-04-16T07:25:30.549Z,1015.12
2023-04-16T07:26:30.532Z,1015.08
2023-04-16T07:27:30.560Z,1015.12
2023-04-16T07:28:30.487Z,1015.14
2023-04-16T07:29:30.527Z,1015.13
2023-04-16T07:30:30.477Z,1015.13
2023-04-16T07:31:30.501Z,1015.13
2023-04-16T07:32:30.467Z,1015.18
2023-04-16T07:33:30.443Z,1015.18
2023-04-16T07:34:30.456Z,1015.13
2023-04-16T07:35:30.459Z,1015.16
2023-04-16T07:36:30.396Z,1015.18
2023-04-16T07:37:30.390Z,1015.20
2023-04-16T07:38:30.380Z,1015.18
2023-04-16T07:39:30.433Z,1015.22
2023-04-16T07:40:30.384Z,1015.24
2023-04-16T07:41:30.398Z,1015.27
2023-04-16T07:42:30.336Z,1015.26
2023-04-16T07:43:30.332Z,1015.27
2023-04-16T07:44:30.326Z,1015.26
2023-04-16T07:45:30.339Z,1015.28
2023-04-16T07:46:39.325Z,1015.36
2023-04-16T07:47:31.364Z,1015.34
2023-04-16T07:48:30.343Z,1015.33
2023-04-16T07:49:30.266Z,1015.31
2023-04-16T07:50:30.303Z,1015.35
2023-04-16T07:51:30.278Z,1015.32
2023-04-16T07:52:30.310Z,1015.32
2023-04-16T07:53:30.216Z,1015.34
2023-04-16T07:54:30.209Z,1015.38
2023-04-16T07:55:30.198Z,1015.36
2023-04-16T07:56:30.195Z,1015.38
2023-04-16T07:57:30.277Z,1015.38
2023-04-16T07:58:30.170Z,1015.42
2023-04-16T07:59:30.465Z,1015.41
2023-04-16T08:00:30.164Z,1015.38
2023-04-16T08:01:30.234Z,1015.41
2023-04-16T08:02:30.333Z,1015.41
2023-04-16T08:03:30.225Z,1015.43
2023-04-16T08:04:30.297Z,1015.43
2023-04-16T08:05:30.125Z,1015.42
2023-04-16T08:06:30.082Z,1015.46
2023-04-16T08:07:30.436Z,1015.47
2023-04-16T08:08:30.071Z,1015.41
2023-04-16T08:09:30.055Z,1015.46
2023-04-16T08:10:30.059Z,1015.45
2023-04-16T08:11:30.027Z,1015.48
2023-04-16T08:12:30.024Z,1015.51
2023-04-16T08:13:31.755Z,1015.54
2023-04-16T08:14:30.037Z,1015.55
2023-04-16T08:15:30.074Z,1015.55
2023-04-16T08:16:30.051Z,1015.56
2023-04-16T08:17:30.099Z,1015.49
2023-04-16T08:18:29.965Z,1015.57
2023-04-16T08:19:29.942Z,1015.59
2023-04-16T08:20:29.956Z,1015.53
2023-04-16T08:21:29.947Z,1015.57
2023-04-16T08:22:29.962Z,1015.54
2023-04-16T08:23:29.982Z,1015.57
2023-04-16T08:24:29.899Z,1015.64
2023-04-16T08:25:29.885Z,1015.60
2023-04-16T08:26:29.863Z,1015.61
2023-04-16T08:27:29.869Z,1015.60
2023-04-16T08:28:29.939Z,1015.62
2023-04-16T08:29:29.833Z,1015.59
2023-04-16T08:30:29.835Z,1015.63
2023-04-16T08:31:29.845Z,1015.63
2023-04-16T08:32:29.833Z,1015.73
2023-04-16T08:33:29.826Z,1015.66
2023-04-16T08:34:29.825Z,1015.68
2023-04-16T08:35:29.858Z,1015.68
2023-04-16T08:36:29.755Z,1015.68
2023-04-16T08:37:29.749Z,1015.75
2023-04-16T08:38:29.831Z,1015.73
2023-04-16T08:39:29.733Z,1015.76
2023-04-16T08:40:29.716Z,1015.77
2023-04-16T08:41:29.775Z,1015.72
2023-04-16T08:42:29.695Z,1015.76
2023-04-16T08:43:29.735Z,1015.83
2023-04-16T08:44:29.677Z,1015.82
2023-04-16T08:45:29.677Z,1015.84
2023-04-16T08:46:29.672Z,1015.85
2023-04-16T08:47:29.700Z,1015.89
2023-04-16T08:48:29.638Z,1015.86
2023-04-16T08:49:29.607Z,1015.86
2023-04-16T08:50:29.646Z,1015.90
2023-04-16T08:51:29.666Z,1015.92
2023-04-16T08:52:29.578Z,1015.87
2023-04-16T08:53:29.600Z,1015.84
2023-04-16T08:54:29.608Z,1015.87
2023-04-16T08:55:29.552Z,1015.89
2023-04-16T08:56:29.535Z,1015.90
2023-04-16T08:57:29.533Z,1015.94
2023-04-16T08:58:29.527Z,1015.93
2023-04-16T08:59:29.513Z,1015.93
2023-04-16T09:00:29.550Z,1015.89
2023-04-16T09:01:29.623Z,1015.91
2023-04-16T09:02:29.691Z,1015.93
2023-04-16T09:03:29.595Z,1015.95
2023-04-16T09:04:29.848Z,1015.96
2023-04-16T09:05:29.451Z,1015.96
2023-04-16T09:06:29.431Z,1015.98
2023-04-16T09:07:29.482Z,1015.92
2023-04-16T09:08:29.402Z,1016.00
2023-04-16T09:09:29.410Z,1016.03
2023-04-16T09:10:29.520Z,1016.01
2023-04-16T09:11:29.373Z,1016.00
2023-04-16T09:12:29.365Z,1016.03
2023-04-16T09:13:29.354Z,1016.02
2023-04-16T09:14:29.349Z,1016.04
2023-04-16T09:15:29.336Z,1016.05
2023-04-16T09:16:29.381Z,1016.01
2023-04-16T09:17:29.486Z,1016.03
2023-04-16T09:18:29.313Z,1016.07
2023-04-16T09:19:29.296Z,1016.10
2023-04-16T09:20:29.291Z,1016.08
2023-04-16T09:21:29.271Z,1016.09
2023-04-16T09:22:29.376Z,1016.05
2023-04-16T09:23:29.287Z,1016.06
2023-04-16T09:24:29.234Z,1016.03
2023-04-16T09:25:29.234Z,1016.10
2023-04-16T09:26:29.307Z,1016.10
2023-04-16T09:27:29.209Z,1016.07
2023-04-16T09:28:29.223Z,1016.13
2023-04-16T09:29:29.181Z,1016.08
2023-04-16T09:30:29.175Z,1016.12
2023-04-16T09:31:29.178Z,1016.17
2023-04-16T09:32:29.191Z,1016.14
2023-04-16T09:33:29.236Z,1016.15
2023-04-16T09:34:29.130Z,1016.14
2023-04-16T09:35:29.119Z,1016.17
2023-04-16T09:36:30.882Z,1016.16
2023-04-16T09:37:29.122Z,1016.17
2023-04-16T09:38:29.081Z,1016.17
2023-04-16T09:39:29.093Z,1016.20
2023-04-16T09:40:29.057Z,1016.23
2023-04-16T09:41:29.044Z,1016.20
2023-04-16T09:42:29.071Z,1016.18
2023-04-16T09:43:29.023Z,1016.22
2023-04-16T09:44:29.022Z,1016.20
2023-04-16T09:45:29.033Z,1016.22
2023-04-16T09:46:29.021Z,1016.25
2023-04-16T09:47:29.029Z,1016.26
2023-04-16T09:48:29.765Z,1016.19
2023-04-16T09:49:28.970Z,1016.25
2023-04-16T09:50:28.955Z,1016.26
2023-04-16T09:51:28.941Z,1016.22
2023-04-16T09:52:28.922Z,1016.21
2023-04-16T09:53:30.780Z,1016.22
2023-04-16T09:54:28.908Z,1016.25
2023-04-16T09:55:28.907Z,1016.26
2023-04-16T09:56:28.897Z,1016.25
2023-04-16T09:57:28.884Z,1016.23
2023-04-16T09:58:28.888Z,1016.24
2023-04-16T09:59:28.867Z,1016.25
2023-04-16T10:00:28.843Z,1016.26
2023-04-16T10:01:28.856Z,1016.22
2023-04-16T10:02:28.882Z,1016.27
2023-04-16T10:03:29.100Z,1016.24
2023-04-16T10:04:28.811Z,1016.26
2023-04-16T10:05:28.797Z,1016.31
2023-04-16T10:06:28.807Z,1016.29
2023-04-16T10:07:28.777Z,1016.34
2023-04-16T10:08:28.813Z,1016.29
2023-04-16T10:09:28.754Z,1016.30
2023-04-16T10:10:28.734Z,1016.28
2023-04-16T10:11:28.791Z,1016.26
2023-04-16T10:12:28.752Z,1016.32
2023-04-16T10:13:28.760Z,1016.38
2023-04-16T10:14:28.738Z,1016.32
2023-04-16T10:15:28.691Z,1016.35
2023-04-16T10:16:28.683Z,1016.37
2023-04-16T10:17:28.707Z,1016.37
2023-04-16T10:18:28.638Z,1016.34
2023-04-16T10:19:28.668Z,1016.35
2023-04-16T10:20:28.639Z,1016.32
2023-04-16T10:21:28.634Z,1016.34
2023-04-16T10:22:28.613Z,1016.29
2023-04-16T10:23:28.606Z,1016.31
2023-04-16T10:24:28.588Z,1016.38
2023-04-16T10:25:28.664Z,1016.38
2023-04-16T10:26:28.624Z,1016.37
2023-04-16T10:27:28.629Z,1016.41
2023-04-16T10:28:28.566Z,1016.40
2023-04-16T10:29:28.528Z,1016.45
2023-04-16T10:30:28.576Z,1016.43
2023-04-16T10:31:28.560Z,1016.44
2023-04-16T10:32:28.718Z,1016.42
2023-04-16T10:33:28.512Z,1016.47
2023-04-16T10:34:28.529Z,1016.50
2023-04-16T10:35:28.464Z,1016.47
2023-04-16T10:36:28.451Z,1016.37
2023-04-16T10:37:28.452Z,1016.42
2023-04-16T10:38:28.473Z,1016.40
2023-04-16T10:39:28.428Z,1016.40
2023-04-16T10:40:28.463Z,1016.38
2023-04-16T10:41:28.421Z,1016.39
2023-04-16T10:42:28.401Z,1016.36
2023-04-16T10:43:28.380Z,1016.34
2023-04-16T10:44:28.410Z,1016.34
2023-04-16T10:45:28.361Z,1016.37
2023-04-16T10:46:28.402Z,1016.31
2023-04-16T10:47:28.375Z,1016.30
2023-04-16T10:48:33.141Z,1016.26
2023-04-16T10:49:29.373Z,1016.30
2023-04-16T10:50:28.311Z,1016.27
2023-04-16T10:51:28.301Z,1016.25
2023-04-16T10:52:28.300Z,1016.26
2023-04-16T10:53:28.273Z,1016.29
2023-04-16T10:54:28.269Z,1016.22
2023-04-16T10:55:28.280Z,1016.25
2023-04-16T10:56:28.245Z,1016.24
2023-04-16T10:57:28.211Z,1016.23
2023-04-16T10:58:28.245Z,1016.20
2023-04-16T10:59:28.286Z,1016.21
2023-04-16T11:00:28.191Z,1016.19
2023-04-16T11:01:28.195Z,1016.23
2023-04-16T11:02:28.402Z,1016.22
2023-04-16T11:03:28.328Z,1016.19
2023-04-16T11:04:30.411Z,1016.17
2023-04-16T11:05:28.150Z,1016.20
2023-04-16T11:06:28.147Z,1016.25
2023-04-16T11:07:32.363Z,1016.16
2023-04-16T11:08:28.116Z,1016.14
2023-04-16T11:09:28.095Z,1016.17
2023-04-16T11:10:28.148Z,1016.18
2023-04-16T11:11:28.066Z,1016.13
2023-04-16T11:12:28.071Z,1016.16
2023-04-16T11:13:28.046Z,1016.13
2023-04-16T11:14:28.265Z,1016.14
2023-04-16T11:15:28.040Z,1016.12
2023-04-16T11:16:28.106Z,1016.20
2023-04-16T11:17:28.074Z,1016.18
2023-04-16T11:18:27.995Z,1016.14
2023-04-16T11:19:28.036Z,1016.15
2023-04-16T11:20:30.043Z,1016.13
2023-04-16T11:21:28.004Z,1016.14
2023-04-16T11:22:27.959Z,1016.14
2023-04-16T11:23:27.991Z,1016.12
2023-04-16T11:24:28.012Z,1016.16
2023-04-16T11:25:28.056Z,1016.18
2023-04-16T11:26:27.937Z,1016.22
2023-04-16T11:27:27.966Z,1016.21
2023-04-16T11:28:27.892Z,1016.18
2023-04-16T11:29:27.885Z,1016.13
2023-04-16T11:30:27.863Z,1016.20
2023-04-16T11:31:27.939Z,1016.20
2023-04-16T11:32:27.929Z,1016.18
2023-04-16T11:33:27.828Z,1016.15
2023-04-16T11:34:27.834Z,1016.20
2023-04-16T11:35:27.811Z,1016.18
2023-04-16T11:36:28.074Z,1016.20
2023-04-16T11:37:27.817Z,1016.19
2023-04-16T11:38:27.805Z,1016.24
2023-04-16T11:39:27.769Z,1016.24
2023-04-16T11:40:27.814Z,1016.25
2023-04-16T11:41:27.773Z,1016.20
2023-04-16T11:42:27.780Z,1016.23
2023-04-16T11:43:27.722Z,1016.21
2023-04-16T11:44:27.749Z,1016.22
2023-04-16T11:45:27.707Z,1016.29
2023-04-16T11:46:28.073Z,1016.23
2023-04-16T11:47:27.888Z,1016.22
2023-04-16T11:48:27.780Z,1016.21
2023-04-16T11:49:27.687Z,1016.20
2023-04-16T11:50:27.804Z,1016.22
2023-04-16T11:51:27.659Z,1016.20
2023-04-16T11:52:27.650Z,1016.19
2023-04-16T11:53:27.614Z,1016.24
2023-04-16T11:54:27.638Z,1016.22
2023-04-16T11:55:27.640Z,1016.23
2023-04-16T11:56:27.590Z,1016.27
2023-04-16T11:57:27.589Z,1016.23
2023-04-16T11:58:27.571Z,1016.19
2023-04-16T11:59:27.554Z,1016.25
2023-04-16T12:00:27.578Z,1016.25
2023-04-16T12:01:27.527Z,1016.28
2023-04-16T12:02:27.690Z,1016.28
2023-04-16T12:03:27.702Z,1016.25
2023-04-16T12:04:27.575Z,1016.25
2023-04-16T12:05:27.531Z,1016.29